createdAt,value
2023-05-05T00:00:44.804Z,99228.79
2023-05-05T00:03:37.095Z,99231.77
2023-05-05T00:06:29.452Z,99228.34
2023-05-05T00:09:22.519Z,99224.45
2023-05-05T00:12:14.571Z,99222.61
2023-05-05T00:15:07.687Z,99221.18
2023-05-05T00:17:59.716Z,99219.83
2023-05-05T00:20:52.254Z,99217.02
2023-05-05T00:23:44.232Z,99214.41
2023-05-05T00:26:36.187Z,99213.68
2023-05-05T00:29:17.160Z,99211.93
2023-05-05T00:32:09.147Z,99205.17
2023-05-05T00:35:01.315Z,99202.99
2023-05-05T00:37:53.308Z,99196.09
2023-05-05T00:40:45.368Z,99192.69
2023-05-05T00:43:37.323Z,99191.16
2023-05-05T00:46:31.717Z,99188.38
2023-05-05T00:49:14.862Z,99187.89
2023-05-05T00:52:07.799Z,99183.48
2023-05-05T00:55:00.848Z,99187.80
2023-05-05T00:57:53.414Z,99185.19
2023-05-05T01:00:45.435Z,99188.13
2023-05-05T01:03:38.280Z,99191.89
2023-05-05T01:06:42.925Z,99197.87
2023-05-05T01:09:39.439Z,99196.41
2023-05-05T01:12:38.645Z,99200.10
2023-05-05T01:15:35.193Z,99201.34
2023-05-05T01:18:39.165Z,99194.45
2023-05-05T01:21:37.144Z,99191.69
2023-05-05T01:25:22.203Z,99186.23
2023-05-05T01:28:41.119Z,99182.10
2023-05-05T01:31:51.912Z,99174.27
2023-05-05T01:34:57.342Z,99181.19
2023-05-05T01:37:52.875Z,99181.05
2023-05-05T01:40:49.228Z,99179.48
2023-05-05T01:43:45.812Z,99186.33
2023-05-05T01:46:39.291Z,99186.80
2023-05-05T01:49:32.668Z,99178.69
2023-05-05T01:52:25.292Z,99183.34
2023-05-05T01:55:19.801Z,99181.84
2023-05-05T01:58:13.364Z,99184.05
2023-05-05T02:01:06.526Z,99188.24
2023-05-05T02:03:51.056Z,99196.56
2023-05-05T02:06:45.355Z,99201.18
2023-05-05T02:09:39.859Z,99196.61
2023-05-05T02:12:32.590Z,99192.20
2023-05-05T02:15:26.408Z,99186.77
2023-05-05T02:18:18.979Z,99189.54
2023-05-05T02:21:11.168Z,99184.70
2023-05-05T02:24:04.015Z,99190.88
2023-05-05T02:26:58.611Z,99184.05
2023-05-05T02:29:52.705Z,99182.29
2023-05-05T02:32:49.478Z,99178.42
2023-05-05T02:35:46.951Z,99181.30
2023-05-05T02:38:41.539Z,99176.46
2023-05-05T02:41:37.707Z,99176.69
2023-05-05T02:44:32.331Z,99169.84
2023-05-05T02:47:24.514Z,99175.85
2023-05-05T02:50:17.237Z,99182.72
2023-05-05T02:53:09.328Z,99181.25
2023-05-05T02:56:27.723Z,99179.04
2023-05-05T02:59:27.794Z,99178.14
2023-05-05T03:02:23.179Z,99178.11
2023-05-05T03:05:20.734Z,99171.10
2023-05-05T03:08:18.277Z,99164.92
2023-05-05T03:11:17.211Z,99163.49
2023-05-05T03:14:12.067Z,99164.23
2023-05-05T03:17:05.361Z,99169.41
2023-05-05T03:19:58.258Z,99173.85
2023-05-05T03:22:51.582Z,99175.88
2023-05-05T03:25:47.870Z,99176.91
2023-05-05T03:28:39.881Z,99177.96
2023-05-05T03:31:31.928Z,99179.36
2023-05-05T03:34:11.925Z,99178.59
2023-05-05T03:37:03.924Z,99178.38
2023-05-05T03:39:55.875Z,99179.46
2023-05-05T03:42:47.792Z,99177.52
2023-05-05T03:45:39.784Z,99177.87
2023-05-05T03:48:32.018Z,99174.49
2023-05-05T03:51:23.972Z,99175.11
2023-05-05T03:54:16.640Z,99176.55
2023-05-05T03:57:08.698Z,99169.39
2023-05-05T04:00:00.738Z,99172.55
2023-05-05T04:02:52.804Z,99174.30
2023-05-05T04:05:45.089Z,99181.68
2023-05-05T04:08:37.126Z,99180.63
2023-05-05T04:11:14.048Z,99184.36
2023-05-05T04:14:06.050Z,99183.15
2023-05-05T04:16:57.998Z,99186.66
2023-05-05T04:19:50.098Z,99190.97
2023-05-05T04:22:42.167Z,99195.20
2023-05-05T04:25:34.322Z,99193.00
2023-05-05T04:28:26.278Z,99187.85
2023-05-05T04:31:18.327Z,99190.26
2023-05-05T04:34:10.343Z,99194.38
2023-05-05T04:37:02.313Z,99196.87
2023-05-05T04:39:54.530Z,99200.48
2023-05-05T04:42:46.517Z,99196.71
2023-05-05T04:45:38.566Z,99197.36
2023-05-05T04:48:30.567Z,99195.80
2023-05-05T04:51:22.511Z,99197.11
2023-05-05T04:54:14.802Z,99199.85
2023-05-05T04:57:07.300Z,99197.17
2023-05-05T04:59:59.842Z,99200.45
2023-05-05T05:02:52.428Z,99200.41
2023-05-05T05:05:44.523Z,99208.63
2023-05-05T05:08:36.589Z,99216.89
2023-05-05T05:11:28.646Z,99216.40
2023-05-05T05:14:20.752Z,99211.34
2023-05-05T05:17:12.739Z,99216.27
2023-05-05T05:20:04.954Z,99216.21
2023-05-05T05:22:57.394Z,99217.73
2023-05-05T05:25:49.456Z,99219.82
2023-05-05T05:28:42.545Z,99222.28
2023-05-05T05:31:35.019Z,99226.42
2023-05-05T05:34:27.082Z,99227.27
2023-05-05T05:37:19.160Z,99231.20
2023-05-05T05:40:12.505Z,99233.41
2023-05-05T05:43:04.532Z,99229.21
2023-05-05T05:45:56.580Z,99230.46
2023-05-05T05:48:48.642Z,99234.98
2023-05-05T05:51:40.701Z,99233.77
2023-05-05T05:54:34.438Z,99227.10
2023-05-05T05:57:27.770Z,99229.34
2023-05-05T06:00:21.113Z,99234.60
2023-05-05T06:03:13.184Z,99233.27
2023-05-05T06:06:05.305Z,99232.64
2023-05-05T06:08:57.269Z,99228.41
2023-05-05T06:11:49.258Z,99225.82
2023-05-05T06:14:41.244Z,99225.92
2023-05-05T06:17:33.310Z,99220.52
2023-05-05T06:20:25.307Z,99214.82
2023-05-05T06:23:17.383Z,99215.05
2023-05-05T06:26:09.350Z,99214.02
2023-05-05T06:29:01.390Z,99218.48
2023-05-05T06:31:53.365Z,99218.98
2023-05-05T06:34:47.423Z,99222.96
2023-05-05T06:37:28.873Z,99224.13
2023-05-05T06:40:20.972Z,99222.05
2023-05-05T06:43:13.164Z,99219.80
2023-05-05T06:46:05.242Z,99218.84
2023-05-05T06:48:57.249Z,99219.80
2023-05-05T06:51:49.246Z,99217.23
2023-05-05T06:54:41.243Z,99216.45
2023-05-05T06:57:33.252Z,99220.23
2023-05-05T07:00:25.990Z,99223.05
2023-05-05T07:03:18.172Z,99216.92
2023-05-05T07:06:10.356Z,99216.08
2023-05-05T07:09:03.438Z,99218.38
2023-05-05T07:11:55.467Z,99214.59
2023-05-05T07:14:48.747Z,99213.67
2023-05-05T07:17:40.809Z,99213.78
2023-05-05T07:20:32.828Z,99215.06
2023-05-05T07:23:24.853Z,99209.65
2023-05-05T07:26:17.119Z,99206.86
2023-05-05T07:29:09.307Z,99199.38
2023-05-05T07:32:01.364Z,99202.70
2023-05-05T07:34:53.526Z,99204.39
2023-05-05T07:37:46.438Z,99209.27
2023-05-05T07:40:38.492Z,99209.30
2023-05-05T07:43:30.507Z,99206.53
2023-05-05T07:46:22.672Z,99205.52
2023-05-05T07:49:16.556Z,99203.24
2023-05-05T07:52:08.598Z,99199.98
2023-05-05T07:55:00.782Z,99200.53
2023-05-05T07:57:52.755Z,99198.80
2023-05-05T08:00:44.805Z,99195.52
2023-05-05T08:03:36.906Z,99199.38
2023-05-05T08:06:29.448Z,99194.49
2023-05-05T08:09:21.436Z,99196.19
2023-05-05T08:12:15.124Z,99195.34
2023-05-05T08:15:08.191Z,99192.45
2023-05-05T08:18:00.710Z,99190.09
2023-05-05T08:20:53.137Z,99192.98
2023-05-05T08:23:45.225Z,99191.79
2023-05-05T08:26:37.311Z,99192.59
2023-05-05T08:29:29.300Z,99193.30
2023-05-05T08:32:21.324Z,99191.40
2023-05-05T08:35:14.126Z,99192.58
2023-05-05T08:38:06.176Z,99188.54
2023-05-05T08:40:58.158Z,99187.61
2023-05-05T08:43:50.584Z,99181.36
2023-05-05T08:46:43.847Z,99179.52
2023-05-05T08:49:45.540Z,99179.13
2023-05-05T08:52:43.729Z,99176.80
2023-05-05T08:55:30.445Z,99173.44
2023-05-05T08:58:24.052Z,99172.06
2023-05-05T09:01:17.878Z,99170.09
2023-05-05T09:04:10.869Z,99168.61
2023-05-05T09:07:03.348Z,99170.48
2023-05-05T09:09:56.309Z,99164.32
2023-05-05T09:12:50.107Z,99164.63
2023-05-05T09:15:42.515Z,99161.94
2023-05-05T09:18:34.585Z,99165.80
2023-05-05T09:21:27.763Z,99161.02
2023-05-05T09:24:19.794Z,99158.00
2023-05-05T09:27:23.988Z,99160.19
2023-05-05T09:30:18.304Z,99162.60
2023-05-05T09:33:10.808Z,99155.41
2023-05-05T09:36:02.813Z,99155.23
2023-05-05T09:39:07.778Z,99153.31
2023-05-05T09:41:59.836Z,99158.23
2023-05-05T09:44:52.223Z,99158.52
2023-05-05T09:47:45.575Z,99154.80
2023-05-05T09:50:46.338Z,99154.51
2023-05-05T09:53:42.953Z,99159.73
2023-05-05T09:56:41.566Z,99158.16
2023-05-05T09:59:33.620Z,99154.08
2023-05-05T10:02:43.538Z,99153.42
2023-05-05T10:05:47.438Z,99153.65
2023-05-05T10:08:39.410Z,99152.23
2023-05-05T10:11:35.624Z,99149.18
2023-05-05T10:14:28.758Z,99147.67
2023-05-05T10:17:23.417Z,99146.50
2023-05-05T10:20:16.372Z,99145.79
2023-05-05T10:23:11.907Z,99139.70
2023-05-05T10:26:07.185Z,99144.44
2023-05-05T10:29:01.347Z,99147.05
2023-05-05T10:31:54.420Z,99145.23
2023-05-05T10:34:55.245Z,99144.91
2023-05-05T10:37:47.894Z,99140.90
2023-05-05T10:40:43.749Z,99140.41
2023-05-05T10:43:36.612Z,99135.80
2023-05-05T10:46:29.851Z,99132.02
2023-05-05T10:49:29.493Z,99133.36
2023-05-05T10:52:30.316Z,99131.50
2023-05-05T10:55:28.561Z,99131.64
2023-05-05T11:01:34.624Z,99119.02
2023-05-05T11:04:26.870Z,99121.43
2023-05-05T11:07:27.002Z,99118.57
2023-05-05T11:10:20.998Z,99114.64
2023-05-05T11:13:22.894Z,99110.13
2023-05-05T11:16:48.136Z,99109.95
2023-05-05T11:19:51.668Z,99112.40
2023-05-05T11:23:16.872Z,99111.27
2023-05-05T11:26:09.021Z,99113.42
2023-05-05T11:29:04.739Z,99115.39
2023-05-05T11:32:13.710Z,99113.83
2023-05-05T11:35:06.458Z,99110.73
2023-05-05T11:38:08.001Z,99104.36
2023-05-05T11:41:06.825Z,99105.30
2023-05-05T11:44:13.302Z,99102.14
2023-05-05T11:47:30.142Z,99094.95
2023-05-05T11:50:23.364Z,99096.95
2023-05-05T11:53:16.541Z,99100.27
2023-05-05T11:56:15.397Z,99103.09
2023-05-05T11:59:11.583Z,99096.90
2023-05-05T12:02:03.983Z,99101.64
2023-05-05T12:04:56.434Z,99102.64
2023-05-05T12:07:48.862Z,99094.91
2023-05-05T12:10:41.023Z,99090.04
2023-05-05T12:13:33.124Z,99092.38
2023-05-05T12:16:25.158Z,99089.45
2023-05-05T12:19:17.147Z,99087.63
2023-05-05T12:22:09.107Z,99089.73
2023-05-05T12:25:03.539Z,99090.02
2023-05-05T12:27:55.894Z,99085.68
2023-05-05T12:31:08.165Z,99085.83
2023-05-05T12:34:00.342Z,99085.27
2023-05-05T12:36:52.525Z,99083.46
2023-05-05T12:39:44.592Z,99083.08
2023-05-05T12:42:42.435Z,99081.38
2023-05-05T12:45:35.654Z,99083.55
2023-05-05T12:48:27.775Z,99078.48
2023-05-05T12:51:23.301Z,99078.32
2023-05-05T12:54:15.401Z,99078.65
2023-05-05T12:57:14.905Z,99078.35
2023-05-05T13:00:17.999Z,99075.58
2023-05-05T13:03:21.198Z,99067.11
2023-05-05T13:06:31.769Z,99061.22
2023-05-05T13:09:27.589Z,99056.10
2023-05-05T13:12:21.375Z,99058.80
2023-05-05T13:15:15.203Z,99057.10
2023-05-05T13:18:07.528Z,99050.59
2023-05-05T13:20:59.635Z,99050.33
2023-05-05T13:23:31.646Z,99050.18
2023-05-05T13:26:24.825Z,99049.17
2023-05-05T13:29:17.484Z,99047.95
2023-05-05T13:32:10.320Z,99046.58
2023-05-05T13:35:02.341Z,99045.07
2023-05-05T13:37:54.291Z,99044.54
2023-05-05T13:40:46.485Z,99038.13
2023-05-05T13:43:38.579Z,99035.75
2023-05-05T13:46:30.846Z,99031.70
2023-05-05T13:49:22.839Z,99026.86
2023-05-05T13:52:14.937Z,99029.16
2023-05-05T13:55:08.334Z,99031.42
2023-05-05T13:58:00.584Z,99026.00
2023-05-05T14:00:52.614Z,99026.63
2023-05-05T14:03:44.691Z,99024.17
2023-05-05T14:06:36.789Z,99020.92
2023-05-05T14:09:16.991Z,99010.05
2023-05-05T14:12:09.826Z,99009.52
2023-05-05T14:15:01.885Z,99010.26
2023-05-05T14:17:54.044Z,99007.85
2023-05-05T14:20:46.113Z,98999.40
2023-05-05T14:23:38.106Z,99002.83
2023-05-05T14:26:30.203Z,99002.34
2023-05-05T14:29:22.266Z,99007.67
2023-05-05T14:32:14.400Z,99010.41
2023-05-05T14:35:08.048Z,99011.94
2023-05-05T14:38:00.241Z,99011.39
2023-05-05T14:40:52.261Z,99009.48
2023-05-05T14:43:44.225Z,99010.09
2023-05-05T14:46:36.427Z,99009.96
2023-05-05T14:49:28.504Z,99007.39
2023-05-05T14:52:20.529Z,99009.24
2023-05-05T14:55:12.864Z,99012.20
2023-05-05T14:58:04.968Z,99016.38
2023-05-05T15:00:56.966Z,99017.42
2023-05-05T15:03:32.242Z,99016.55
2023-05-05T15:06:24.311Z,99013.50
2023-05-05T15:09:18.025Z,99014.17
2023-05-05T15:12:10.135Z,99021.86
2023-05-05T15:15:02.161Z,99021.09
2023-05-05T15:17:54.215Z,99021.99
2023-05-05T15:20:46.277Z,99020.40
2023-05-05T15:23:38.346Z,99013.90
2023-05-05T15:26:30.361Z,99009.05
2023-05-05T15:29:22.392Z,99010.75
2023-05-05T15:32:14.427Z,99008.70
2023-05-05T15:35:07.155Z,99014.98
2023-05-05T15:37:59.330Z,99007.87
2023-05-05T15:40:52.014Z,99004.37
2023-05-05T15:43:44.006Z,99004.41
2023-05-05T15:46:36.152Z,99006.84
2023-05-05T15:49:28.157Z,99005.30
2023-05-05T15:52:20.138Z,98998.85
2023-05-05T15:55:13.354Z,98997.48
2023-05-05T15:58:05.307Z,99001.25
2023-05-05T16:00:57.331Z,98995.69
2023-05-05T16:03:49.297Z,98996.55
2023-05-05T16:06:41.320Z,98991.66
2023-05-05T16:09:33.352Z,98988.96
2023-05-05T16:12:25.549Z,98990.16
2023-05-05T16:15:17.715Z,98989.77
2023-05-05T16:18:09.758Z,98985.45
2023-05-05T16:21:02.618Z,98983.95
2023-05-05T16:23:54.583Z,98982.38
2023-05-05T16:26:46.815Z,98988.63
2023-05-05T16:29:38.793Z,98989.71
2023-05-05T16:32:30.856Z,98986.52
2023-05-05T16:35:23.914Z,98990.55
2023-05-05T16:38:16.641Z,98995.02
2023-05-05T16:41:08.768Z,98993.53
2023-05-05T16:44:01.089Z,98994.54
2023-05-05T16:46:53.075Z,98994.11
2023-05-05T16:49:45.024Z,98994.80
2023-05-05T16:52:37.044Z,98997.23
2023-05-05T16:55:29.060Z,98999.52
2023-05-05T16:58:21.253Z,98997.77
2023-05-05T17:01:13.270Z,98997.92
2023-05-05T17:04:05.346Z,98996.48
2023-05-05T17:06:57.973Z,99001.18
2023-05-05T17:09:50.018Z,99001.45
2023-05-05T17:12:42.095Z,99000.69
2023-05-05T17:15:34.401Z,99004.90
2023-05-05T17:18:26.368Z,99005.85
2023-05-05T17:21:18.483Z,99009.82
2023-05-05T17:24:11.436Z,99011.13
2023-05-05T17:27:03.506Z,99014.02
2023-05-05T17:29:56.238Z,99014.20
2023-05-05T17:32:48.359Z,99018.41
2023-05-05T17:35:41.190Z,99024.27
2023-05-05T17:38:33.143Z,99023.89
2023-05-05T17:41:25.811Z,99026.28
2023-05-05T17:44:17.806Z,99026.25
2023-05-05T17:47:10.514Z,99024.53
2023-05-05T17:50:02.793Z,99023.27
2023-05-05T17:52:54.741Z,99025.11
2023-05-05T17:55:48.434Z,99021.14
2023-05-05T17:58:40.407Z,99021.44
2023-05-05T18:01:32.359Z,99020.92
2023-05-05T18:04:24.375Z,99021.48
2023-05-05T18:07:16.518Z,99027.12
2023-05-05T18:10:10.632Z,99031.14
2023-05-05T18:13:02.703Z,99030.61
2023-05-05T18:15:54.754Z,99028.16
2023-05-05T18:18:46.872Z,99028.94
2023-05-05T18:21:38.838Z,99028.56
2023-05-05T18:24:31.758Z,99030.47
2023-05-05T18:27:23.713Z,99040.31
2023-05-05T18:30:16.276Z,99036.84
2023-05-05T18:33:08.295Z,99042.98
2023-05-05T18:36:01.123Z,99040.83
2023-05-05T18:38:35.807Z,99038.54
2023-05-05T18:41:27.781Z,99038.08
2023-05-05T18:44:20.846Z,99041.70
2023-05-05T18:47:12.877Z,99041.91
2023-05-05T18:50:05.399Z,99049.90
2023-05-05T18:52:57.358Z,99049.81
2023-05-05T18:55:49.978Z,99046.48
2023-05-05T18:58:42.101Z,99045.80
2023-05-05T19:01:34.191Z,99047.66
2023-05-05T19:04:31.450Z,99049.33
2023-05-05T19:07:34.351Z,99049.61
2023-05-05T19:10:27.550Z,99052.07
2023-05-05T19:13:19.643Z,99052.58
2023-05-05T19:16:11.911Z,99047.52
2023-05-05T19:19:04.251Z,99046.02
2023-05-05T19:21:58.048Z,99043.75
2023-05-05T19:24:50.124Z,99045.98
2023-05-05T19:27:42.360Z,99043.13
2023-05-05T19:30:34.544Z,99041.03
2023-05-05T19:33:26.765Z,99036.33
2023-05-05T19:36:19.589Z,99036.47
2023-05-05T19:39:13.708Z,99036.65
2023-05-05T19:42:08.382Z,99038.13
2023-05-05T19:45:00.428Z,99039.84
2023-05-05T19:47:32.515Z,99041.72
2023-05-05T19:50:26.563Z,99039.34
2023-05-05T19:53:19.278Z,99035.69
2023-05-05T19:56:11.530Z,99037.66
2023-05-05T19:59:06.246Z,99041.69
2023-05-05T20:01:58.524Z,99038.24
2023-05-05T20:04:50.976Z,99039.41
2023-05-05T20:07:43.872Z,99034.71
2023-05-05T20:10:36.648Z,99040.54
2023-05-05T20:13:28.670Z,99039.88
2023-05-05T20:16:21.501Z,99037.20
2023-05-05T20:19:13.608Z,99033.12
2023-05-05T20:22:05.618Z,99028.45
2023-05-05T20:24:58.188Z,99028.11
2023-05-05T20:27:50.170Z,99029.61
2023-05-05T20:30:42.157Z,99032.85
2023-05-05T20:33:34.249Z,99035.11
2023-05-05T20:36:26.716Z,99032.75
2023-05-05T20:39:17.252Z,99035.95
2023-05-05T20:42:09.225Z,99030.31
2023-05-05T20:45:03.008Z,99027.02
2023-05-05T20:47:55.063Z,99022.19
2023-05-05T20:50:47.040Z,99022.14
2023-05-05T20:53:39.081Z,99023.54
2023-05-05T20:56:31.092Z,99023.94
2023-05-05T20:59:23.157Z,99025.61
2023-05-05T21:02:15.195Z,99027.13
2023-05-05T21:05:08.840Z,99025.04
2023-05-05T21:08:01.455Z,99021.63
2023-05-05T21:10:53.568Z,99022.80
2023-05-05T21:13:45.597Z,99024.59
2023-05-05T21:16:37.590Z,99021.75
2023-05-05T21:19:12.279Z,99023.63
2023-05-05T21:22:04.397Z,99020.53
2023-05-05T21:25:09.018Z,99020.87
2023-05-05T21:28:01.043Z,99022.41
2023-05-05T21:33:48.339Z,99022.59
2023-05-05T21:36:40.684Z,99023.30
2023-05-05T21:39:33.256Z,99025.06
2023-05-05T21:42:25.250Z,99019.02
2023-05-05T21:45:14.701Z,99017.39
2023-05-05T21:48:07.474Z,99010.75
2023-05-05T21:50:59.643Z,99012.27
2023-05-05T21:53:51.685Z,99007.01
2023-05-05T21:56:43.726Z,99005.10
2023-05-05T21:59:35.963Z,99009.91
2023-05-05T22:02:28.104Z,99005.40
2023-05-05T22:05:20.479Z,98999.55
2023-05-05T22:08:12.512Z,98999.61
2023-05-05T22:11:04.551Z,98998.65
2023-05-05T22:13:56.972Z,98992.73
2023-05-05T22:16:48.955Z,98996.00
2023-05-05T22:19:41.010Z,98996.60
2023-05-05T22:22:16.423Z,98994.59
2023-05-05T22:25:10.202Z,98989.46
2023-05-05T22:28:02.429Z,98986.86
2023-05-05T22:30:54.563Z,98982.52
2023-05-05T22:33:46.545Z,98985.03
2023-05-05T22:36:38.700Z,98995.41
2023-05-05T22:39:30.716Z,98995.05
2023-05-05T22:42:22.844Z,98993.09
2023-05-05T22:45:15.391Z,98991.38
2023-05-05T22:48:08.136Z,98988.36
2023-05-05T22:51:00.137Z,98987.88
2023-05-05T22:53:52.294Z,98987.58
2023-05-05T22:56:44.365Z,98985.09
2023-05-05T22:59:36.330Z,98977.69
2023-05-05T23:02:28.980Z,98969.35
2023-05-05T23:05:21.235Z,98963.73
2023-05-05T23:08:13.281Z,98958.82
2023-05-05T23:11:05.545Z,98960.80
2023-05-05T23:14:00.835Z,98965.25
2023-05-05T23:16:52.899Z,98964.08
2023-05-05T23:19:48.095Z,98966.46
2023-05-05T23:22:40.122Z,98966.02
2023-05-05T23:25:32.140Z,98963.65
2023-05-05T23:28:24.261Z,98964.85
2023-05-05T23:31:16.423Z,98971.52
2023-05-05T23:34:08.422Z,98970.39
2023-05-05T23:37:00.470Z,98972.08
2023-05-05T23:39:52.461Z,98971.86
2023-05-05T23:42:44.443Z,98975.26
2023-05-05T23:45:36.469Z,98977.96
2023-05-05T23:48:28.539Z,98976.88
2023-05-05T23:51:20.578Z,98970.30
2023-05-05T23:54:12.490Z,98964.77
2023-05-05T23:57:04.528Z,98959.45
2023-05-05T23:59:56.460Z,98952.95
